Time;durP1;ratioP1;P1;durP2;ratioP2;P2;SDS_P1;SDS_P2;PMS_P1;PMS_P2;Temp;Humidity;BMP_temperature;BMP_pressure;BME280_temperature;BME280_humidity;BME280_pressure;Samples;Min_cycle;Max_cycle;Signal;HPM_P1;HPM_P2
2022/10/07 00:01:09;;;;;;;;;2.50;2.50;;;;;7.99;69.44;101108.94;5035303;28;8861;-62
2022/10/07 00:03:37;;;;;;;;;2.00;2.00;;;;;7.96;69.67;101118.84;5034999;28;8836;-62
2022/10/07 00:06:05;;;;;;;;;3.00;3.00;;;;;7.93;69.88;101111.94;5035149;28;8832;-62
2022/10/07 00:08:32;;;;;;;;;3.75;3.50;;;;;7.91;69.70;101108.47;5034297;28;8839;-62
2022/10/07 00:11:00;;;;;;;;;1.00;1.00;;;;;7.89;69.80;101113.00;5034245;28;8855;-61
2022/10/07 00:13:27;;;;;;;;;4.00;2.50;;;;;7.88;69.62;101102.47;5035875;28;8887;-61
2022/10/07 00:15:55;;;;;;;;;4.00;2.00;;;;;7.89;69.61;101110.34;5038933;28;8894;-63
2022/10/07 00:18:23;;;;;;;;;1.50;1.00;;;;;7.89;69.26;101109.47;5038502;28;8839;-62
2022/10/07 00:20:51;;;;;;;;;1.50;1.50;;;;;7.86;69.77;101105.22;5038493;28;8858;-62
2022/10/07 00:23:19;;;;;;;;;3.00;3.00;;;;;7.83;70.13;101102.69;5038080;28;8845;-61
2022/10/07 00:25:47;;;;;;;;;3.00;2.00;;;;;7.79;69.61;101101.16;5037888;28;8874;-64
2022/10/07 00:28:14;;;;;;;;;4.00;3.50;;;;;7.78;69.96;101098.56;5037602;28;8816;-63
2022/10/07 00:30:42;;;;;;;;;2.50;2.50;;;;;7.76;70.06;101097.78;5038026;28;8832;-63
2022/10/07 00:33:10;;;;;;;;;3.00;3.00;;;;;7.73;69.81;101093.50;5037922;28;8995;-62
2022/10/07 00:35:38;;;;;;;;;3.00;3.00;;;;;7.72;70.39;101085.59;5037837;28;8879;-61
2022/10/07 00:38:05;;;;;;;;;4.00;3.75;;;;;7.70;69.67;101083.00;5038335;28;8840;-62
2022/10/07 00:40:33;;;;;;;;;4.00;3.00;;;;;7.68;69.78;101083.19;5037995;28;8844;-62
2022/10/07 00:43:01;;;;;;;;;4.00;3.00;;;;;7.67;69.90;101076.16;5038240;28;8828;-63
2022/10/07 00:45:29;;;;;;;;;3.00;3.00;;;;;7.66;70.11;101074.47;5038084;28;8863;-62
2022/10/07 00:47:57;;;;;;;;;4.00;3.25;;;;;7.67;69.96;101073.50;5037760;28;8848;-61
2022/10/07 00:50:25;;;;;;;;;4.00;4.00;;;;;7.66;69.82;101077.94;5037696;28;8824;-62
2022/10/07 00:52:53;;;;;;;;;1.00;1.00;;;;;7.64;70.05;101063.09;5037794;28;8851;-62
2022/10/07 00:55:21;;;;;;;;;3.75;3.75;;;;;7.61;70.40;101068.50;5037806;28;8847;-63
2022/10/07 00:57:49;;;;;;;;;3.60;3.60;;;;;7.59;70.36;101068.56;5038004;28;9534;-63
2022/10/07 01:00:17;;;;;;;;;1.80;1.80;;;;;7.57;70.11;101061.66;5037393;28;8926;-62
2022/10/07 01:02:46;;;;;;;;;3.00;3.00;;;;;7.57;70.21;101059.84;5037687;28;8820;-62
2022/10/07 01:05:14;;;;;;;;;1.80;1.80;;;;;7.59;70.31;101057.13;5037526;28;8836;-61
2022/10/07 01:07:42;;;;;;;;;2.20;2.00;;;;;7.58;70.29;101056.25;5038264;28;8832;-61
2022/10/07 01:10:10;;;;;;;;;3.00;3.00;;;;;7.55;70.10;101051.13;5037778;28;8832;-63
2022/10/07 01:12:38;;;;;;;;;3.00;3.00;;;;;7.52;70.14;101050.44;5038116;28;8847;-62
2022/10/07 01:15:07;;;;;;;;;2.00;2.00;;;;;7.48;70.16;101046.19;5037777;28;8848;-61
2022/10/07 01:17:35;;;;;;;;;2.60;1.00;;;;;7.43;70.30;101050.88;5037146;28;8843;-64
2022/10/07 01:20:03;;;;;;;;;1.00;1.00;;;;;7.38;70.66;101037.88;5037902;28;8921;-61
2022/10/07 01:22:30;;;;;;;;;3.20;3.20;;;;;7.35;70.27;101045.09;5037917;28;9534;-63
2022/10/07 01:24:58;;;;;;;;;4.00;4.00;;;;;7.31;70.47;101033.78;5036502;28;9623;-62
2022/10/07 01:27:26;;;;;;;;;2.20;2.20;;;;;7.27;70.75;101029.56;5037126;28;8859;-61
2022/10/07 01:29:54;;;;;;;;;3.50;2.50;;;;;7.28;70.74;101025.13;5036887;28;8886;-61
2022/10/07 01:32:22;;;;;;;;;0.60;0.60;;;;;7.25;70.60;101026.13;5037064;28;8843;-63
2022/10/07 01:34:50;;;;;;;;;1.00;1.00;;;;;7.24;70.74;101024.44;5037131;28;8836;-63
2022/10/07 01:37:17;;;;;;;;;3.00;2.20;;;;;7.23;70.54;101022.72;5037413;28;8820;-61
2022/10/07 01:39:45;;;;;;;;;1.00;1.00;;;;;7.21;70.73;101013.13;5036755;28;8827;-63
2022/10/07 01:42:14;;;;;;;;;0.00;0.00;;;;;7.21;70.39;101013.13;5037006;28;8828;-62
2022/10/07 01:44:42;;;;;;;;;5.20;4.00;;;;;7.19;70.86;101007.06;5037381;28;8925;-61
2022/10/07 01:47:10;;;;;;;;;4.00;3.00;;;;;7.18;70.85;101007.97;5036953;28;8913;-63
2022/10/07 01:49:37;;;;;;;;;6.20;3.80;;;;;7.18;70.97;101007.97;5036911;28;8855;-61
2022/10/07 01:52:05;;;;;;;;;3.00;3.00;;;;;7.16;70.73;101007.19;5036807;28;8832;-62
2022/10/07 01:54:33;;;;;;;;;3.00;3.00;;;;;7.15;70.72;100997.53;5036780;28;8920;-62
2022/10/07 01:57:01;;;;;;;;;1.80;1.80;;;;;7.13;71.01;100994.94;5036799;28;8844;-61
2022/10/07 01:59:28;;;;;;;;;3.00;2.60;;;;;7.12;70.83;100992.38;5036465;28;8897;-62
2022/10/07 02:01:56;;;;;;;;;3.80;3.80;;;;;7.09;71.02;100996.03;5036821;28;8828;-61
2022/10/07 02:04:24;;;;;;;;;3.60;3.00;;;;;7.07;71.05;100997.03;5036734;28;8840;-61
2022/10/07 02:06:52;;;;;;;;;3.20;1.80;;;;;7.06;70.93;100990.03;5036640;28;8828;-60
2022/10/07 02:09:20;;;;;;;;;3.00;3.00;;;;;7.05;70.79;100990.97;5036499;28;8816;-60
2022/10/07 02:11:47;;;;;;;;;1.80;1.80;;;;;7.04;71.16;100982.16;5036404;28;8854;-60
2022/10/07 02:14:15;;;;;;;;;3.60;3.20;;;;;7.04;70.36;100976.03;5036664;28;8836;-63
2022/10/07 02:16:43;;;;;;;;;3.20;3.20;;;;;7.03;70.64;100975.16;5036713;28;9478;-62
2022/10/07 02:19:11;;;;;;;;;1.40;1.40;;;;;7.05;70.92;100972.44;5036308;28;8906;-62
2022/10/07 02:21:39;;;;;;;;;4.80;3.20;;;;;7.03;70.72;100966.34;5036749;28;8828;-61
2022/10/07 02:24:06;;;;;;;;;1.40;1.40;;;;;7.01;70.92;100963.78;5036580;28;8836;-62
2022/10/07 02:26:34;;;;;;;;;0.40;0.40;;;;;6.98;71.35;100961.25;5036576;28;8851;-62
2022/10/07 02:29:02;;;;;;;;;1.00;1.00;;;;;6.96;71.10;100963.13;5036117;28;8816;-61
2022/10/07 02:31:30;;;;;;;;;1.40;1.00;;;;;6.92;71.06;100958.06;5036840;28;9486;-60
2022/10/07 02:33:58;;;;;;;;;1.00;1.00;;;;;6.88;70.91;100952.06;5036025;28;8838;-63
2022/10/07 02:36:25;;;;;;;;;2.20;2.20;;;;;6.86;71.23;100950.41;5036220;28;8836;-63
2022/10/07 02:38:53;;;;;;;;;3.00;1.00;;;;;6.86;71.13;100945.13;5035847;28;8844;-63
2022/10/07 02:41:30;;;;;;;;;3.00;3.00;;;;;6.84;71.24;100941.69;5035961;28;9501;-63
2022/10/07 02:43:57;;;;;;;;;3.00;3.00;;;;;6.84;71.06;100939.06;5035598;28;8920;-61
2022/10/07 02:46:25;;;;;;;;;2.60;2.20;;;;;6.82;71.01;100936.47;5035640;28;9005;-62
2022/10/07 02:48:55;;;;;;;;;5.00;3.40;;;;;6.80;71.04;100938.34;5035679;28;8835;-62
2022/10/07 02:51:23;;;;;;;;;1.00;1.00;;;;;6.79;71.29;100938.41;5035732;28;8828;-62
2022/10/07 02:53:50;;;;;;;;;3.20;2.20;;;;;6.77;71.41;100940.28;5035676;28;8852;-63
2022/10/07 02:56:18;;;;;;;;;1.00;1.00;;;;;6.77;70.80;100934.97;5035550;28;8832;-62
2022/10/07 02:58:46;;;;;;;;;0.80;0.80;;;;;6.76;70.99;100926.16;5035247;28;8816;-62
2022/10/07 03:01:16;;;;;;;;;3.00;3.00;;;;;6.76;71.37;100930.63;5035504;28;8921;-62
2022/10/07 03:03:44;;;;;;;;;3.00;3.00;;;;;6.78;71.02;100931.41;5035318;28;8909;-63
2022/10/07 03:06:12;;;;;;;;;1.80;1.00;;;;;6.76;71.21;100926.16;5035430;28;9497;-61
2022/10/07 03:08:40;;;;;;;;;2.20;1.00;;;;;6.78;71.58;100928.75;5035419;28;8832;-61
2022/10/07 03:11:08;;;;;;;;;1.00;1.00;;;;;6.77;71.14;100927.91;5035618;28;8917;-62
2022/10/07 03:13:36;;;;;;;;;1.00;1.00;;;;;6.76;71.18;100925.34;5035601;28;8909;-61
2022/10/07 03:16:04;;;;;;;;;2.20;1.40;;;;;6.75;70.81;100919.16;5035730;28;8945;-62
2022/10/07 03:18:31;;;;;;;;;3.00;3.00;;;;;6.74;71.31;100916.63;5035593;28;8966;-63
2022/10/07 03:20:59;;;;;;;;;3.20;3.00;;;;;6.74;70.87;100913.97;5035410;28;8957;-61
2022/10/07 03:23:28;;;;;;;;;5.60;4.00;;;;;6.75;70.89;100902.44;5035496;28;8836;-61
2022/10/07 03:25:55;;;;;;;;;3.00;3.00;;;;;6.74;71.18;100911.31;5035818;28;8843;-61
2022/10/07 03:28:23;;;;;;;;;4.00;4.00;;;;;6.73;71.04;100907.81;5034970;28;8820;-61
2022/10/07 03:30:50;;;;;;;;;1.80;1.80;;;;;6.72;70.86;100905.22;5035187;28;8858;-63
2022/10/07 03:33:18;;;;;;;;;2.60;2.60;;;;;6.71;71.47;100906.16;5034822;28;8906;-60
2022/10/07 03:35:46;;;;;;;;;0.60;0.20;;;;;6.69;71.57;100902.75;5035539;28;9650;-61
2022/10/07 03:38:14;;;;;;;;;3.00;1.00;;;;;6.66;71.37;100903.75;5035137;28;8848;-63
2022/10/07 03:40:41;;;;;;;;;1.40;1.40;;;;;6.63;71.29;100897.75;5035145;28;9549;-61
2022/10/07 03:43:09;;;;;;;;;2.60;2.20;;;;;6.60;71.77;100898.75;5034864;28;8831;-61
2022/10/07 03:45:37;;;;;;;;;3.00;2.60;;;;;6.58;71.45;100897.09;5034802;28;8855;-60
2022/10/07 03:48:05;;;;;;;;;3.00;3.00;;;;;6.56;71.38;100891.03;5035226;28;8828;-60
2022/10/07 03:50:32;;;;;;;;;3.00;3.00;;;;;6.55;71.47;100891.97;5038057;28;8929;-61
2022/10/07 03:53:00;;;;;;;;;4.00;3.00;;;;;6.54;71.25;100896.38;5038758;28;8917;-61
2022/10/07 03:55:28;;;;;;;;;3.00;3.00;;;;;6.52;72.02;100892.97;5038585;28;8832;-60
2022/10/07 03:57:56;;;;;;;;;1.00;1.00;;;;;6.51;71.73;100890.41;5038061;28;8851;-60
2022/10/07 04:00:26;;;;;;;;;2.60;2.60;;;;;6.50;71.71;100888.66;5038678;28;8865;-60
2022/10/07 04:02:53;;;;;;;;;3.40;3.00;;;;;6.48;71.60;100891.41;5037996;28;9553;-61
2022/10/07 04:05:21;;;;;;;;;3.00;3.00;;;;;6.48;71.81;100893.19;5038028;28;8861;-63
2022/10/07 04:07:49;;;;;;;;;3.00;3.00;;;;;6.48;71.84;100887.91;5038450;28;9595;-62
2022/10/07 04:10:17;;;;;;;;;3.60;3.60;;;;;6.49;71.66;100882.53;5038903;28;9509;-62
2022/10/07 04:12:46;;;;;;;;;1.00;1.00;;;;;6.49;71.76;100889.59;5039092;28;8844;-62
2022/10/07 04:15:14;;;;;;;;;2.60;2.60;;;;;6.50;71.72;100881.59;5038353;28;8844;-63
2022/10/07 04:17:42;;;;;;;;;3.00;3.00;;;;;6.50;71.99;100880.72;5038406;28;8925;-61
2022/10/07 04:20:09;;;;;;;;;2.80;2.20;;;;;6.49;71.35;100879.03;5038495;28;8832;-62
2022/10/07 04:22:38;;;;;;;;;3.00;3.00;;;;;6.46;71.65;100881.81;5038527;28;8840;-63
2022/10/07 04:27:51;;;;;;;;;0.80;0.80;;;;;6.44;71.68;100873.13;5038300;28;8847;-61
2022/10/07 04:30:18;;;;;;;;;2.60;2.60;;;;;6.44;71.25;100871.31;5038343;28;8820;-63
2022/10/07 04:32:46;;;;;;;;;2.20;1.00;;;;;6.44;71.66;100870.47;5038218;28;8824;-63
2022/10/07 04:35:14;;;;;;;;;4.40;4.40;;;;;6.44;71.87;100873.13;5038415;28;8847;-63
2022/10/07 04:37:42;;;;;;;;;3.20;3.20;;;;;6.42;71.57;100873.19;5038178;28;8949;-61
2022/10/07 04:40:10;;;;;;;;;2.40;2.40;;;;;6.40;71.73;100882.13;5038040;28;8946;-61
2022/10/07 04:45:23;;;;;;;;;2.20;2.20;;;;;6.34;71.98;100879.75;5037865;28;8879;-62
2022/10/07 04:47:51;;;;;;;;;1.40;1.00;;;;;6.33;72.23;100876.28;5037807;28;8934;-62
2022/10/07 04:50:19;;;;;;;;;3.00;3.00;;;;;6.32;71.64;100871.91;5037913;28;8840;-62
2022/10/07 04:52:46;;;;;;;;;1.40;1.00;;;;;6.34;71.35;100866.53;5038033;28;9521;-61
2022/10/07 04:55:14;;;;;;;;;3.00;1.40;;;;;6.35;71.54;100868.25;5037833;28;8840;-62
2022/10/07 04:57:42;;;;;;;;;1.00;1.00;;;;;6.37;71.37;100864.59;5037785;28;8890;-63
2022/10/07 05:00:10;;;;;;;;;3.40;2.60;;;;;6.38;71.82;100860.19;5036439;28;8839;-63
2022/10/07 05:02:38;;;;;;;;;5.60;3.60;;;;;6.40;71.66;100863.59;5037631;28;8839;-63
2022/10/07 05:05:06;;;;;;;;;3.60;3.00;;;;;6.38;71.40;100852.25;5037913;28;8932;-62
2022/10/07 05:07:34;;;;;;;;;1.00;1.00;;;;;6.37;71.73;100854.00;5037543;28;8910;-63
2022/10/07 05:10:01;;;;;;;;;3.00;3.00;;;;;6.36;71.82;100849.66;5037684;28;8941;-61
2022/10/07 05:12:29;;;;;;;;;3.00;3.00;;;;;6.36;72.02;100854.13;5037699;28;8855;-62
2022/10/07 05:14:57;;;;;;;;;1.80;1.80;;;;;6.32;71.83;100852.53;5037090;28;8929;-63
2022/10/07 05:17:24;;;;;;;;;3.00;3.00;;;;;6.30;71.70;100849.09;5037120;28;8851;-62
2022/10/07 05:19:52;;;;;;;;;1.40;1.40;;;;;6.30;72.01;100849.94;5036318;28;8859;-61
2022/10/07 05:22:20;;;;;;;;;1.00;1.00;;;;;6.29;72.19;100842.94;5037032;28;8823;-61
2022/10/07 05:24:48;;;;;;;;;2.00;0.00;;;;;6.26;71.98;100842.25;5037011;28;8909;-61
2022/10/07 05:27:15;;;;;;;;;4.00;1.80;;;;;6.23;72.22;100845.88;5037091;28;8847;-62
2022/10/07 05:29:43;;;;;;;;;8.60;7.20;;;;;6.21;71.80;100841.63;5035414;28;8836;-61
2022/10/07 05:32:10;;;;;;;;;5.20;4.00;;;;;6.20;72.49;100846.03;5035718;28;8912;-63
2022/10/07 05:34:38;;;;;;;;;6.00;6.00;;;;;6.19;72.35;100844.31;5035470;28;8832;-63
2022/10/07 05:37:06;;;;;;;;;3.00;3.00;;;;;6.19;72.19;100846.97;5035057;28;8836;-62
2022/10/07 05:39:34;;;;;;;;;5.20;3.60;;;;;6.20;71.75;100845.16;5035483;28;9497;-62
2022/10/07 05:42:02;;;;;;;;;1.00;0.80;;;;;6.19;72.34;100839.03;5033966;28;9537;-63
2022/10/07 05:44:30;;;;;;;;;3.00;1.80;;;;;6.18;72.31;100837.34;5034701;28;8848;-60
2022/10/07 05:46:59;;;;;;;;;4.40;4.40;;;;;6.18;72.19;100839.09;5034559;28;8820;-61
2022/10/07 05:49:26;;;;;;;;;4.00;4.00;;;;;6.17;72.10;100846.19;5034429;28;8832;-60
2022/10/07 05:51:54;;;;;;;;;4.00;4.00;;;;;6.17;72.03;100832.09;5034184;28;8867;-63
2022/10/07 05:54:23;;;;;;;;;3.00;3.00;;;;;6.19;71.52;100828.47;5034191;28;8878;-62
2022/10/07 05:56:50;;;;;;;;;4.40;3.40;;;;;6.21;72.21;100825.75;5034209;28;8920;-62
2022/10/07 05:59:19;;;;;;;;;4.00;4.00;;;;;6.23;72.42;100823.88;5033825;28;9541;-62
2022/10/07 06:01:47;;;;;;;;;7.40;5.20;;;;;6.25;72.35;100814.09;5034679;28;8836;-63
2022/10/07 06:04:15;;;;;;;;;1.80;1.80;;;;;6.29;71.75;100808.56;5035172;28;8852;-63
2022/10/07 06:06:42;;;;;;;;;3.20;3.20;;;;;6.34;71.59;100805.69;5035012;28;8858;-63
2022/10/07 06:14:41;;;;;;;;;2.60;2.60;;;;;6.41;71.55;100800.06;5035870;28;8871;-61
2022/10/07 06:17:08;;;;;;;;;3.00;2.20;;;;;6.44;71.74;100797.25;5034071;28;8843;-61
2022/10/07 06:19:36;;;;;;;;;4.00;3.40;;;;;6.46;71.38;100803.31;5033691;28;8844;-61
2022/10/07 06:22:05;;;;;;;;;4.00;4.00;;;;;6.48;71.82;100800.59;5034881;28;8868;-61
2022/10/07 06:24:34;;;;;;;;;3.00;3.00;;;;;6.51;71.18;100803.94;5034818;28;8850;-60
2022/10/07 06:27:02;;;;;;;;;3.00;3.00;;;;;6.57;71.51;100805.44;5034815;28;8844;-60
2022/10/07 06:29:29;;;;;;;;;6.40;4.00;;;;;6.60;71.41;100802.66;5034326;28;8816;-60
2022/10/07 06:31:57;;;;;;;;;3.60;3.60;;;;;6.65;71.01;100800.59;5034319;28;8909;-62
2022/10/07 06:34:25;;;;;;;;;3.00;1.40;;;;;6.68;70.78;100808.41;5034222;28;8840;-60
2022/10/07 06:36:53;;;;;;;;;3.00;3.00;;;;;6.73;70.93;100804.59;5034249;28;8844;-61
2022/10/07 06:39:21;;;;;;;;;4.80;4.00;;;;;6.80;70.68;100799.84;5034782;28;8933;-62
2022/10/07 06:41:51;;;;;;;;;3.20;3.20;;;;;6.86;70.90;100792.47;5034543;28;8849;-60
2022/10/07 06:44:19;;;;;;;;;2.60;1.40;;;;;6.94;71.14;100792.06;5034375;28;8946;-60
2022/10/07 06:46:47;;;;;;;;;3.40;3.00;;;;;6.98;70.62;100793.63;5035074;28;8870;-61
2022/10/07 06:49:14;;;;;;;;;3.00;3.00;;;;;7.05;70.95;100787.91;5034728;28;8859;-60
2022/10/07 06:51:43;;;;;;;;;4.40;3.80;;;;;7.16;70.49;100792.66;5034492;28;8851;-60
2022/10/07 06:54:10;;;;;;;;;3.40;3.40;;;;;7.25;70.64;100790.41;5034190;28;9575;-61
2022/10/07 06:56:39;;;;;;;;;1.80;1.80;;;;;7.31;70.29;100786.56;5034140;28;8843;-61
2022/10/07 06:59:07;;;;;;;;;3.80;3.80;;;;;7.37;70.37;100786.25;5033970;28;8851;-60
2022/10/07 07:01:35;;;;;;;;;0.75;0.50;;;;;7.43;70.26;100788.56;5034240;28;8847;-61
2022/10/07 07:04:04;;;;;;;;;2.00;2.00;;;;;7.50;70.49;100787.31;5034267;28;8937;-61
2022/10/07 07:06:31;;;;;;;;;1.00;1.00;;;;;7.61;69.97;100784.94;5033880;28;8851;-61
2022/10/07 07:09:03;;;;;;;;;4.50;4.00;;;;;7.78;69.72;100788.38;5033543;28;9675;-61
2022/10/07 07:11:40;;;;;;;;;1.00;1.00;;;;;7.90;69.13;100791.19;5033526;28;8867;-61
2022/10/07 07:14:08;;;;;;;;;4.50;3.00;;;;;8.01;69.47;100795.91;5033538;28;8858;-61
2022/10/07 07:16:36;;;;;;;;;1.00;1.00;;;;;8.14;69.15;100796.94;5033835;28;9529;-61
2022/10/07 07:19:04;;;;;;;;;4.00;4.00;;;;;8.31;68.52;100789.78;5032225;28;8851;-60
2022/10/07 07:21:33;;;;;;;;;1.00;1.00;;;;;8.54;68.42;100791.97;5032897;28;8865;-61
2022/10/07 07:24:01;;;;;;;;;3.00;3.00;;;;;8.80;68.25;100790.47;5034560;28;8843;-63
2022/10/07 07:26:29;;;;;;;;;1.00;0.50;;;;;9.01;67.67;100790.03;5036991;28;8912;-60
2022/10/07 07:28:58;;;;;;;;;3.00;2.00;;;;;9.16;67.93;100797.09;5036975;28;8852;-61
2022/10/07 07:31:25;;;;;;;;;1.00;1.00;;;;;9.31;68.07;100796.16;5036751;28;8870;-61
2022/10/07 07:33:54;;;;;;;;;3.25;3.00;;;;;9.47;67.49;100790.75;5037482;28;8847;-61
2022/10/07 07:36:22;;;;;;;;;3.00;3.00;;;;;9.62;67.43;100789.81;5037198;28;8851;-61
2022/10/07 07:38:50;;;;;;;;;3.00;3.00;;;;;9.82;67.19;100787.63;5037064;28;8851;-61
2022/10/07 07:41:18;;;;;;;;;1.50;1.00;;;;;10.04;67.32;100793.34;5036657;28;8871;-61
2022/10/07 07:43:45;;;;;;;;;3.00;3.00;;;;;10.21;66.96;100778.91;5037018;28;8836;-67
2022/10/07 07:46:14;;;;;;;;;3.00;3.00;;;;;10.34;66.61;100778.03;5037192;28;8852;-61
2022/10/07 07:48:42;;;;;;;;;3.00;3.00;;;;;10.49;66.39;100770.84;5036763;28;8873;-60
2022/10/07 07:51:09;;;;;;;;;1.00;1.00;;;;;10.62;65.92;100769.09;5037046;28;8994;-61
2022/10/07 07:53:37;;;;;;;;;3.00;3.00;;;;;10.72;66.32;100765.72;5036899;28;8831;-61
2022/10/07 07:56:05;;;;;;;;;6.00;5.50;;;;;10.81;66.27;100767.75;5036673;28;8847;-61
2022/10/07 07:58:34;;;;;;;;;3.00;3.00;;;;;10.97;66.31;100771.09;5036337;28;8966;-61
2022/10/07 08:01:02;;;;;;;;;1.50;0.50;;;;;11.21;65.39;100763.22;5036301;28;8835;-60
2022/10/07 08:03:30;;;;;;;;;0.25;0.25;;;;;11.45;65.03;100758.84;5036696;28;8875;-62
2022/10/07 08:05:58;;;;;;;;;2.00;2.00;;;;;11.65;64.42;100753.84;5036190;28;8851;-60
2022/10/07 08:08:26;;;;;;;;;1.50;1.50;;;;;11.87;63.93;100753.16;5036059;28;8843;-60
2022/10/07 08:10:54;;;;;;;;;0.75;0.75;;;;;12.05;64.11;100747.34;5036425;28;9757;-60
2022/10/07 08:13:22;;;;;;;;;0.75;0.75;;;;;12.23;63.96;100748.69;5036301;28;8856;-60
2022/10/07 08:15:50;;;;;;;;;1.00;1.00;;;;;12.37;63.16;100748.47;5036638;28;8856;-60
2022/10/07 08:18:18;;;;;;;;;1.00;1.00;;;;;12.54;63.25;100743.59;5036623;28;8973;-60
2022/10/07 08:20:46;;;;;;;;;3.25;2.50;;;;;12.76;63.20;100748.19;5036608;28;8824;-60
2022/10/07 08:23:14;;;;;;;;;6.00;0.75;;;;;13.06;63.16;100743.22;5036920;28;8986;-60
2022/10/07 08:25:42;;;;;;;;;1.50;0.25;;;;;13.42;62.15;100743.00;5036637;28;8918;-60
2022/10/07 08:28:10;;;;;;;;;0.00;0.00;;;;;13.76;61.86;100734.03;5036249;28;8831;-60
2022/10/07 08:30:38;;;;;;;;;0.75;0.75;;;;;14.02;61.15;100732.75;5036975;28;8847;-60
2022/10/07 08:33:06;;;;;;;;;1.00;1.00;;;;;14.23;61.66;100734.59;5036458;28;8867;-61
2022/10/07 08:35:35;;;;;;;;;2.00;1.00;;;;;14.42;61.64;100724.03;5036320;28;8856;-61
2022/10/07 08:38:03;;;;;;;;;0.75;0.75;;;;;14.57;61.10;100720.09;5036725;28;8932;-60
2022/10/07 08:40:31;;;;;;;;;1.00;1.00;;;;;14.65;60.59;100716.78;5035998;28;8828;-61
2022/10/07 08:42:59;;;;;;;;;0.00;0.00;;;;;14.68;61.02;100719.19;5036621;28;8847;-61
2022/10/07 08:45:28;;;;;;;;;0.80;0.00;;;;;14.73;60.56;100717.81;5033723;28;8848;-61
2022/10/07 08:47:56;;;;;;;;;1.00;1.00;;;;;14.80;60.58;100718.19;5035818;28;9453;-60
2022/10/07 08:50:24;;;;;;;;;0.50;0.50;;;;;14.85;60.65;100719.47;5036627;28;8832;-61
2022/10/07 08:52:53;;;;;;;;;0.25;0.25;;;;;14.89;60.62;100712.03;5035686;28;8839;-60
2022/10/07 08:55:21;;;;;;;;;3.00;1.00;;;;;14.92;60.68;100706.38;5036398;28;9595;-61
2022/10/07 08:57:49;;;;;;;;;2.50;2.50;;;;;14.96;60.55;100707.84;5036550;28;9583;-61
2022/10/07 09:00:17;;;;;;;;;0.00;0.00;;;;;15.04;60.28;100710.72;5035698;28;8948;-62
2022/10/07 09:02:45;;;;;;;;;2.00;1.00;;;;;15.12;60.18;100709.09;5035608;28;8852;-60
2022/10/07 09:05:14;;;;;;;;;1.00;1.00;;;;;15.19;60.16;100704.91;5035379;28;8840;-61
2022/10/07 09:07:44;;;;;;;;;0.00;0.00;;;;;15.27;60.52;100702.41;5035254;28;8835;-60
2022/10/07 09:10:12;;;;;;;;;1.00;1.00;;;;;15.37;60.27;100697.94;5034808;28;8847;-62
2022/10/07 09:12:40;;;;;;;;;1.00;1.00;;;;;15.47;60.29;100698.00;5035220;28;8847;-61
2022/10/07 09:15:08;;;;;;;;;1.00;1.00;;;;;15.54;59.91;100688.44;5034376;28;9552;-60
2022/10/07 09:17:36;;;;;;;;;0.00;0.00;;;;;15.63;59.72;100687.59;5034564;28;8875;-61
2022/10/07 09:20:04;;;;;;;;;0.80;0.80;;;;;15.72;59.06;100681.41;5034842;28;8866;-61
2022/10/07 09:22:32;;;;;;;;;0.60;0.60;;;;;15.81;59.57;100686.81;5034076;28;8858;-61
2022/10/07 09:25:00;;;;;;;;;1.20;0.00;;;;;15.89;58.98;100683.44;5034376;28;8917;-61
2022/10/07 09:27:28;;;;;;;;;1.80;1.00;;;;;15.99;59.27;100687.03;5034346;28;8851;-61
2022/10/07 09:29:56;;;;;;;;;0.00;0.00;;;;;16.06;59.09;100685.44;5035048;28;8844;-61
2022/10/07 09:32:24;;;;;;;;;0.00;0.00;;;;;16.12;59.16;100693.81;5034756;28;8843;-60
2022/10/07 09:34:52;;;;;;;;;0.00;0.00;;;;;16.18;58.58;100671.78;5035068;28;8843;-61
2022/10/07 09:37:21;;;;;;;;;0.00;0.00;;;;;16.26;58.94;100672.75;5035574;28;9557;-61
2022/10/07 09:39:49;;;;;;;;;0.00;0.00;;;;;16.36;58.55;100676.31;5034841;28;8851;-61
2022/10/07 09:42:17;;;;;;;;;1.00;1.00;;;;;16.41;58.66;100671.38;5034822;28;8855;-60
2022/10/07 09:44:45;;;;;;;;;0.00;0.00;;;;;16.48;58.12;100660.94;5034447;28;8868;-61
2022/10/07 09:47:12;;;;;;;;;2.60;1.00;;;;;16.57;58.16;100657.38;5032685;28;8831;-61
2022/10/07 09:49:41;;;;;;;;;1.40;1.40;;;;;16.69;57.92;100659.78;5034315;28;8855;-61
2022/10/07 09:52:08;;;;;;;;;0.00;0.00;;;;;16.80;57.81;100664.16;5034607;28;8836;-62
2022/10/07 09:54:36;;;;;;;;;0.00;0.00;;;;;16.95;57.25;100649.25;5034536;28;8840;-61
2022/10/07 09:57:04;;;;;;;;;1.00;0.00;;;;;17.31;56.76;100661.91;5034152;28;8863;-62
2022/10/07 09:59:32;;;;;;;;;0.00;0.00;;;;;17.91;55.51;100645.19;5034857;28;8847;-62
2022/10/07 10:02:01;;;;;;;;;0.20;0.20;;;;;18.60;53.87;100643.56;5035507;28;8838;-61
2022/10/07 10:04:29;;;;;;;;;0.40;0.40;;;;;19.20;53.33;100646.22;5034492;28;8831;-62
2022/10/07 10:06:57;;;;;;;;;0.00;0.00;;;;;19.70;52.30;100641.75;5034305;28;8835;-61
2022/10/07 10:09:25;;;;;;;;;0.00;0.00;;;;;19.94;52.49;100635.59;5034036;28;8886;-62
2022/10/07 10:11:53;;;;;;;;;0.60;0.60;;;;;20.06;52.42;100632.44;5033953;28;8867;-62
2022/10/07 10:14:21;;;;;;;;;0.00;0.00;;;;;20.02;52.90;100633.75;5034217;28;8836;-61
2022/10/07 10:16:49;;;;;;;;;0.00;0.00;;;;;19.89;52.87;100632.53;5033751;28;8827;-61
2022/10/07 10:19:18;;;;;;;;;0.00;0.00;;;;;19.81;53.66;100632.50;5033535;28;8865;-62
2022/10/07 10:21:46;;;;;;;;;0.00;0.00;;;;;19.84;53.69;100621.34;5032741;28;8844;-62
2022/10/07 10:24:14;;;;;;;;;0.00;0.00;;;;;19.95;53.33;100624.59;5033455;28;9900;-61
2022/10/07 10:26:41;;;;;;;;;0.00;0.00;;;;;20.13;53.10;100617.25;5033246;28;8858;-62
2022/10/07 10:29:09;;;;;;;;;0.60;0.60;;;;;20.44;52.68;100615.59;5033417;28;8877;-61
2022/10/07 10:31:37;;;;;;;;;1.40;1.00;;;;;20.99;51.04;100614.75;5033378;28;8864;-61
2022/10/07 10:34:05;;;;;;;;;1.00;0.00;;;;;21.56;50.42;100610.00;5032009;28;8986;-62
2022/10/07 10:36:33;;;;;;;;;1.20;1.20;;;;;21.84;50.31;100595.81;5030314;28;8970;-61
2022/10/07 10:39:01;;;;;;;;;1.00;0.80;;;;;21.82;50.13;100595.16;5030504;28;8848;-61
2022/10/07 10:41:30;;;;;;;;;1.00;0.20;;;;;21.56;50.43;100596.44;5030262;28;8851;-62
2022/10/07 10:43:57;;;;;;;;;2.00;2.00;;;;;21.45;51.12;100596.81;5031465;28;8979;-61
2022/10/07 10:46:25;;;;;;;;;0.00;0.00;;;;;21.59;50.43;100598.78;5031349;28;8819;-61
2022/10/07 10:48:53;;;;;;;;;0.60;0.00;;;;;21.95;49.72;100581.84;5031018;28;8828;-62
2022/10/07 10:51:26;;;;;;;;;0.00;0.00;;;;;22.40;48.80;100586.47;5030214;28;8852;-61
2022/10/07 10:53:55;;;;;;;;;1.00;1.00;;;;;22.13;49.08;100581.56;5030064;28;8839;-61
2022/10/07 10:56:23;;;;;;;;;0.00;0.00;;;;;21.61;50.35;100572.34;5030966;28;9639;-62
2022/10/07 10:58:52;;;;;;;;;1.00;1.00;;;;;21.12;51.23;100579.81;5030941;28;8860;-61
2022/10/07 11:01:22;;;;;;;;;1.00;1.00;;;;;20.73;51.75;100571.75;5031624;28;8860;-61
2022/10/07 11:03:51;;;;;;;;;0.80;0.80;;;;;20.44;52.48;100571.44;5031887;28;8844;-61
2022/10/07 11:06:19;;;;;;;;;0.00;0.00;;;;;20.24;52.82;100570.91;5031992;28;8840;-61
2022/10/07 11:08:47;;;;;;;;;0.60;0.60;;;;;20.18;52.42;100560.75;5032054;28;8901;-61
2022/10/07 11:11:15;;;;;;;;;0.00;0.00;;;;;20.02;52.47;100555.31;5032635;28;8836;-61
2022/10/07 11:13:45;;;;;;;;;1.00;1.00;;;;;19.93;52.36;100556.31;5032859;28;8839;-61
2022/10/07 11:16:14;;;;;;;;;0.00;0.00;;;;;20.03;51.86;100548.88;5032285;28;8859;-62
2022/10/07 11:18:42;;;;;;;;;1.20;0.00;;;;;20.38;51.29;100543.19;5032728;28;9588;-62
2022/10/07 11:21:10;;;;;;;;;0.00;0.00;;;;;20.93;50.42;100544.16;5031932;28;8859;-61
2022/10/07 11:23:40;;;;;;;;;0.40;0.40;;;;;21.36;49.36;100527.41;5032222;28;8847;-61
2022/10/07 11:26:09;;;;;;;;;0.80;0.60;;;;;21.60;48.74;100519.16;5031778;28;8839;-62
2022/10/07 11:28:37;;;;;;;;;1.60;1.00;;;;;22.14;48.07;100515.41;5031198;28;8852;-61
2022/10/07 11:31:05;;;;;;;;;1.60;1.00;;;;;22.69;47.51;100508.66;5032027;28;8832;-61
2022/10/07 11:33:32;;;;;;;;;1.00;1.00;;;;;22.99;47.06;100502.19;5032122;28;8891;-61
2022/10/07 11:36:00;;;;;;;;;1.00;1.00;;;;;23.25;46.60;100499.03;5032516;28;8832;-61
2022/10/07 11:38:28;;;;;;;;;1.00;1.00;;;;;23.61;45.81;100494.47;5032474;28;8848;-61
2022/10/07 11:40:56;;;;;;;;;1.60;1.00;;;;;24.09;44.71;100491.88;5030240;28;8870;-62
2022/10/07 11:43:25;;;;;;;;;1.60;1.20;;;;;24.39;44.40;100487.94;5032129;28;8839;-61
2022/10/07 11:45:53;;;;;;;;;1.00;1.00;;;;;24.36;44.52;100491.06;5032982;28;8852;-62
2022/10/07 11:48:21;;;;;;;;;1.00;1.00;;;;;24.09;45.20;100482.84;5032893;28;8851;-62
2022/10/07 11:50:49;;;;;;;;;1.00;1.00;;;;;24.02;45.81;100476.50;5032095;28;8855;-62
2022/10/07 11:53:17;;;;;;;;;0.00;0.00;;;;;24.01;45.78;100469.38;5031593;28;9521;-62